createdAt,value
2023-01-03T12:46:54.699Z,8.02
2023-01-03T12:49:38.804Z,9.70
2023-01-03T12:52:07.419Z,11.00
2023-01-03T12:54:52.728Z,8.60
2023-01-03T12:57:30.702Z,8.90
2023-01-03T13:00:02.945Z,8.63
2023-01-03T13:02:55.533Z,8.32
2023-01-03T13:05:31.504Z,6.85
2023-01-03T13:08:27.437Z,6.03
2023-01-03T13:10:59.384Z,5.03
2023-01-03T13:13:26.128Z,5.05
2023-01-03T13:15:55.698Z,4.80
2023-01-03T13:18:22.295Z,5.75
2023-01-03T13:20:53.629Z,5.88
2023-01-03T13:23:28.717Z,5.97
2023-01-03T13:26:07.371Z,7.10
2023-01-03T13:28:38.233Z,7.10
2023-01-03T13:31:19.814Z,5.40
2023-01-03T13:33:52.698Z,5.25
2023-01-03T13:36:19.770Z,5.18
2023-01-03T13:38:46.554Z,5.03
2023-01-03T13:41:35.744Z,4.63
2023-01-03T13:44:21.103Z,4.70
2023-01-03T13:46:48.329Z,4.57
2023-01-03T13:49:19.534Z,4.07
2023-01-03T13:51:57.498Z,4.20
2023-01-03T13:54:36.471Z,4.22
2023-01-03T13:57:07.003Z,4.10
2023-01-03T13:59:49.132Z,3.70
2023-01-03T14:02:35.110Z,4.15
2023-01-03T14:05:10.837Z,4.03
2023-01-03T14:08:02.751Z,4.15
2023-01-03T14:10:47.551Z,4.28
2023-01-03T14:13:46.945Z,4.78
2023-01-03T14:16:23.224Z,5.00
2023-01-03T14:21:41.417Z,4.88
2023-01-03T14:24:17.210Z,4.88
2023-01-03T14:26:44.163Z,5.07
2023-01-03T14:29:17.727Z,5.78
2023-01-03T14:31:48.079Z,5.30
2023-01-03T14:34:38.840Z,4.82
2023-01-03T14:37:26.693Z,4.78
2023-01-03T14:40:02.065Z,4.53
2023-01-03T14:42:29.795Z,4.07
2023-01-03T14:45:05.673Z,4.07
2023-01-03T14:47:39.493Z,3.95
2023-01-03T14:50:07.887Z,3.67
2023-01-03T14:52:40.868Z,4.00
2023-01-03T14:55:14.343Z,3.88
2023-01-03T14:57:42.340Z,4.05
2023-01-03T15:00:22.282Z,3.83
2023-01-03T15:02:58.406Z,3.63
2023-01-03T15:05:33.744Z,3.42
2023-01-03T15:08:15.643Z,3.80
2023-01-03T15:10:48.627Z,3.53
2023-01-03T15:13:35.009Z,3.60
2023-01-03T15:16:05.592Z,4.03
2023-01-03T15:18:36.625Z,4.35
2023-01-03T15:21:04.916Z,5.05
2023-01-03T15:23:44.515Z,5.28
2023-01-03T15:26:27.203Z,6.22
2023-01-03T15:29:15.765Z,6.40
2023-01-03T15:32:10.579Z,7.22
2023-01-03T15:34:41.944Z,5.53
2023-01-03T15:37:24.031Z,5.13
2023-01-03T15:39:54.378Z,6.15
2023-01-03T15:42:45.882Z,6.85
2023-01-03T15:45:21.892Z,6.53
2023-01-03T15:47:50.700Z,6.53
2023-01-03T15:50:19.536Z,6.35
2023-01-03T15:52:49.027Z,4.75
2023-01-03T15:55:17.228Z,5.07
2023-01-03T15:57:51.935Z,4.95
2023-01-03T16:00:21.906Z,4.80
2023-01-03T16:02:50.288Z,5.30
2023-01-03T16:05:22.039Z,6.45
2023-01-03T16:07:49.502Z,7.10
2023-01-03T16:10:16.155Z,7.13
2023-01-03T16:12:43.619Z,7.55
2023-01-03T16:15:21.865Z,6.43
2023-01-03T16:17:52.002Z,7.40
2023-01-03T16:20:19.967Z,6.63
2023-01-03T16:22:59.510Z,6.75
2023-01-03T16:25:28.334Z,7.03
2023-01-03T16:27:55.069Z,6.93
2023-01-03T16:30:21.853Z,6.72
2023-01-03T16:32:49.009Z,7.05
2023-01-03T16:35:18.393Z,5.78
2023-01-03T16:37:45.083Z,5.90
2023-01-03T16:40:17.908Z,5.63
2023-01-03T16:42:44.523Z,5.45
2023-01-03T16:45:17.488Z,4.63
2023-01-03T16:47:45.772Z,5.18
2023-01-03T16:50:15.127Z,4.40
2023-01-03T16:52:47.342Z,4.70
2023-01-03T16:55:18.838Z,4.88
2023-01-03T16:57:50.426Z,4.20
2023-01-03T17:00:29.786Z,3.65
2023-01-03T17:03:01.006Z,3.35
2023-01-03T17:05:32.438Z,3.50
2023-01-03T17:08:06.690Z,3.25
2023-01-03T17:10:37.339Z,3.35
2023-01-03T17:13:12.091Z,3.30
2023-01-03T17:15:43.261Z,3.70
2023-01-03T17:18:19.177Z,3.58
2023-01-03T17:20:48.197Z,4.07
2023-01-03T17:23:15.138Z,4.20
2023-01-03T17:25:41.973Z,3.63
2023-01-03T17:28:11.301Z,3.72
2023-01-03T17:30:38.328Z,4.20
2023-01-03T17:33:05.009Z,3.78
2023-01-03T17:35:32.069Z,3.63
2023-01-03T17:38:24.499Z,3.72
2023-01-03T17:40:48.462Z,3.97
2023-01-03T17:43:24.704Z,4.13
2023-01-03T17:49:07.792Z,3.65
2023-01-03T17:51:36.121Z,4.47
2023-01-03T17:54:02.827Z,4.22
2023-01-03T17:56:30.052Z,3.90
2023-01-03T17:58:58.114Z,4.40
2023-01-03T18:01:24.902Z,3.92
2023-01-03T18:03:51.761Z,3.83
2023-01-03T18:06:22.556Z,3.50
2023-01-03T18:08:50.478Z,3.75
2023-01-03T18:11:20.021Z,3.67
2023-01-03T18:13:48.638Z,3.28
2023-01-03T18:16:21.847Z,3.30
2023-01-03T18:18:50.175Z,3.95
2023-01-03T18:21:25.072Z,3.53
2023-01-03T18:23:58.892Z,3.58
2023-01-03T18:26:37.006Z,3.50
2023-01-03T18:29:05.015Z,3.03
2023-01-03T18:31:31.839Z,3.00
2023-01-03T18:33:58.573Z,3.97
2023-01-03T18:36:31.178Z,2.88
2023-01-03T18:39:02.222Z,2.90
2023-01-03T18:41:31.484Z,3.10
2023-01-03T18:43:59.069Z,2.60
2023-01-03T18:46:26.988Z,3.22
2023-01-03T18:48:53.828Z,2.85
2023-01-03T18:51:28.958Z,3.22
2023-01-03T18:53:59.613Z,3.15
2023-01-03T18:56:33.659Z,3.22
2023-01-03T18:59:05.127Z,2.60
2023-01-03T19:01:33.968Z,2.90
2023-01-03T19:04:01.312Z,2.58
2023-01-03T19:06:33.920Z,2.88
2023-01-03T19:09:05.282Z,2.65
2023-01-03T19:11:37.994Z,2.92
2023-01-03T19:14:04.920Z,2.85
2023-01-03T19:16:34.568Z,2.97
2023-01-03T19:19:03.746Z,3.15
2023-01-03T19:21:40.641Z,2.90
2023-01-03T19:24:38.498Z,3.03
2023-01-03T19:27:21.992Z,3.13
2023-01-03T19:29:49.635Z,3.05
2023-01-03T19:32:21.310Z,3.10
2023-01-03T19:34:48.317Z,2.90
2023-01-03T19:37:15.017Z,3.13
2023-01-03T19:39:41.700Z,3.28
2023-01-03T19:42:33.305Z,3.33
2023-01-03T19:45:01.876Z,3.17
2023-01-03T19:47:28.536Z,3.05
2023-01-03T19:50:19.789Z,3.35
2023-01-03T19:52:47.371Z,3.42
2023-01-03T19:55:14.330Z,3.42
2023-01-03T19:57:44.592Z,4.80
2023-01-03T20:00:19.951Z,3.80
2023-01-03T20:02:48.464Z,4.10
2023-01-03T20:05:21.628Z,5.72
2023-01-03T20:07:49.584Z,3.50
2023-01-03T20:10:25.301Z,3.30
2023-01-03T20:12:55.664Z,3.75
2023-01-03T20:15:28.824Z,3.70
2023-01-03T20:17:55.568Z,4.10
2023-01-03T20:20:24.410Z,4.63
2023-01-03T20:23:07.302Z,3.78
2023-01-03T20:25:35.494Z,3.65
2023-01-03T20:28:02.127Z,3.33
2023-01-03T20:30:31.013Z,3.70
2023-01-03T20:32:58.401Z,3.80
2023-01-03T20:36:08.313Z,3.95
2023-01-03T20:38:17.386Z,3.75
2023-01-03T20:40:44.051Z,4.10
2023-01-03T20:43:14.713Z,3.53
2023-01-03T20:45:41.530Z,3.70
2023-01-03T20:48:24.678Z,3.92
2023-01-03T20:50:52.426Z,4.07
2023-01-03T20:53:21.819Z,4.20
2023-01-03T20:55:49.303Z,4.20
2023-01-03T20:58:18.895Z,3.97
2023-01-03T21:00:46.084Z,3.97
2023-01-03T21:03:13.133Z,3.78
2023-01-03T21:05:40.021Z,3.28
2023-01-03T21:08:30.328Z,3.83
2023-01-03T21:10:57.422Z,3.63
2023-01-03T21:13:24.116Z,3.28
2023-01-03T21:15:51.332Z,4.03
2023-01-03T21:18:19.012Z,3.60
2023-01-03T21:20:45.816Z,4.68
2023-01-03T21:23:20.412Z,4.40
2023-01-03T21:25:47.817Z,4.97
2023-01-03T21:28:15.201Z,5.47
2023-01-03T21:30:42.870Z,4.78
2023-01-03T21:33:16.797Z,5.20
2023-01-03T21:35:43.474Z,4.78
2023-01-03T21:38:10.964Z,5.07
2023-01-03T21:40:37.585Z,4.07
2023-01-03T21:43:06.024Z,3.47
2023-01-03T21:45:40.545Z,3.72
2023-01-03T21:48:13.223Z,3.70
2023-01-03T21:50:42.685Z,4.55
2023-01-03T21:53:20.051Z,4.20
2023-01-03T21:55:47.636Z,4.60
2023-01-03T21:58:18.977Z,4.53
2023-01-03T22:00:47.583Z,4.38
2023-01-03T22:03:34.348Z,4.55
